Xin Dan Dong — BPBY — position and weather

sailwx.info

Track history (hours):
 
Tides and Currents Weather Stations Pressure Air Temp Water Temp Dewpoint Dewpoint Depression Visibility Wind Speed Wind Dir Waves Ship Positions

Xin Dan Dong

Last reported at 2016-May-02 07:33 UTC. Time now 2016-May-02 08:11 UTC.
Position N 24°11' E 118°45'.

Length 263 m; draft 10.3 m.

Type: Ship. MMSI: 413153000.

Date/timePositionNaut miles runAvg speedWind from/ knotsBaromVisibWave heightAir tempDewpointWater temp
2016-May-02 07:33N 24°11' E 118°45'3611.9
2016-May-02 04:33N 24°35' E 119°15'3012.0
2016-May-02 02:03N 24°55' E 119°39'612.2
2016-May-02 01:33N 24°59' E 119°44'22512.5
2016-May-01 07:32N 28°01' E 122°13'7511.6
2016-May-01 01:07N 29°13' E 122°35'913.1
2016-May-01 00:24N 29°21' E 122°31'1113.3
2016-Apr-30 23:32N 29°32' E 122°26'1212.1
2016-Apr-30 22:33N 29°43' E 122°22'1111.1
2016-Apr-30 21:33N 29°51' E 122°12'1212.3
2016-Apr-30 20:33N 29°57' E 121°60'3 0.3
2016-Apr-30 09:33N 29°57' E 121°56'1110.7
2016-Apr-30 08:32N 29°56' E 122°09'1212.3
2016-Apr-30 07:33N 29°46' E 122°17'1010.6
2016-Apr-30 06:33N 29°44' E 122°29'1 0.1
2016-Apr-29 06:13N 29°45' E 122°30'3 5.3
2016-Apr-29 05:33N 29°46' E 122°34'1413.6
2016-Apr-29 04:32N 29°52' E 122°49'1513.4
2016-Apr-29 03:26N 29°58' E 123°04'1212.5
2016-Apr-29 02:28N 30°07' E 123°13'1313.5
2016-Apr-29 01:31N 30°20' E 123°13'3213.5
2016-Apr-28 23:07N 30°53' E 123°14'813.2
2016-Apr-28 22:31N 31°01' E 123°14'1212.7
2016-Apr-28 21:33N 31°13' E 123°15'2612.4
2016-Apr-28 19:28N 31°39' E 123°14'35513.7
2016-Apr-27 17:33N 37°34' E 123°14'1313.5
2016-Apr-27 16:33N 37°44' E 123°03'1313.2
2016-Apr-27 15:34N 37°53' E 122°51'1312.7
2016-Apr-27 14:33N 38°02' E 122°39'4513.0
2016-Apr-27 11:07N 38°33' E 121°59'712.0
2016-Apr-27 10:30N 38°40' E 121°57'12 0.8
2016-Apr-26 20:18N 38°52' E 121°59'0 0.0
2016-Apr-26 19:30N 38°52' E 121°59'0 0.0
2016-Apr-26 18:33N 38°52' E 121°59'0 0.0
2016-Apr-26 17:30N 38°52' E 121°59'0 0.0
2016-Apr-26 16:33N 38°52' E 121°59'0 0.1
2016-Apr-26 14:18N 38°52' E 121°59'2 0.3
2016-Apr-26 09:31N 38°52' E 121°57'6 6.0
2016-Apr-26 08:29N 38°48' E 121°50'3 2.8
2016-Apr-26 07:33N 38°45' E 121°50'1212.2
2016-Apr-26 06:33N 38°35' E 121°41'1111.3
2016-Apr-26 05:33N 38°31' E 121°28'1211.6
2016-Apr-26 04:33N 38°28' E 121°13'1111.0
2016-Apr-26 03:33N 38°30' E 120°60'1110.8
2016-Apr-26 02:31N 38°38' E 120°50'1111.9
2016-Apr-26 01:33N 38°50' E 120°48'9812.2
2016-Apr-25 17:30N 40°17' E 121°46'1212.6
2016-Apr-25 16:33N 40°18' E 122°02'3 2.2
2016-Apr-25 15:08N 40°16' E 122°06'0 0.0
2016-Apr-25 10:20N 40°16' E 122°06'0 0.0
2016-Apr-25 09:14N 40°16' E 122°06'0 0.0
2016-Apr-25 07:26N 40°16' E 122°06'0 0.0
2016-Apr-25 06:32N 40°16' E 122°06'0 0.0
2016-Apr-25 00:32N 40°16' E 122°06'0 0.0
2016-Apr-24 23:14N 40°16' E 122°06'0 0.0
2016-Apr-24 22:32N 40°16' E 122°06'0 0.0
2016-Apr-24 21:20N 40°16' E 122°06'0 0.0
2016-Apr-24 19:25N 40°16' E 122°06'0 0.0
2016-Apr-24 18:26N 40°16' E 122°06'0 0.0
2016-Apr-24 13:26N 40°16' E 122°06'2 2.4
2016-Apr-24 12:28N 40°18' E 122°03'9 9.1
2016-Apr-24 11:28N 40°18' E 121°51'11010.1
2016-Apr-24 00:31N 38°35' E 121°01'1313.1
2016-Apr-23 23:33N 38°28' E 121°14'1413.3
2016-Apr-23 22:31N 38°21' E 121°29'4113.6
2016-Apr-23 19:32N 37°60' E 122°13'1313.0
2016-Apr-23 18:32N 37°54' E 122°28'1212.5
2016-Apr-23 17:33N 37°48' E 122°41'1212.2
2016-Apr-23 16:33N 37°41' E 122°54'1312.4
2016-Apr-23 15:30N 37°35' E 123°09'1111.5
2016-Apr-23 14:32N 37°25' E 123°14'1713.0
2016-Apr-23 13:12N 37°07' E 123°15'913.9
2016-Apr-23 12:32N 36°58' E 123°14'28313.9
2016-Apr-22 16:10N 32°16' E 123°14'1115.2
2016-Apr-22 15:25N 32°04' E 123°14'1915.0
2016-Apr-22 14:09N 31°45' E 123°14'914.4
2016-Apr-22 13:33N 31°37' E 123°14'1414.1
2016-Apr-22 12:33N 31°23' E 123°13'1413.8
2016-Apr-22 11:33N 31°09' E 123°14'1613.6
2016-Apr-22 10:25N 30°53' E 123°14'1412.8
2016-Apr-22 09:20N 30°40' E 123°14'  
Track history (hours):
 
Tides and Currents Weather Stations Pressure Air Temp Water Temp Dewpoint Dewpoint Depression Visibility Wind Speed Wind Dir Waves Ship Positions

Xin Dan Dong

Last reported at 2016-May-02 07:33 UTC. Time now 2016-May-02 08:11 UTC.
Position N 24°11' E 118°45'.

Length 263 m; draft 10.3 m.

Type: Ship. MMSI: 413153000.

Date/timePositionNaut miles runAvg speedWind from/ knotsBaromVisibWave heightAir tempDewpointWater temp
2016-May-02 07:33N 24°11' E 118°45'3611.9
2016-May-02 04:33N 24°35' E 119°15'3012.0
2016-May-02 02:03N 24°55' E 119°39'612.2
2016-May-02 01:33N 24°59' E 119°44'22512.5
2016-May-01 07:32N 28°01' E 122°13'7511.6
2016-May-01 01:07N 29°13' E 122°35'913.1
2016-May-01 00:24N 29°21' E 122°31'1113.3
2016-Apr-30 23:32N 29°32' E 122°26'1212.1
2016-Apr-30 22:33N 29°43' E 122°22'1111.1
2016-Apr-30 21:33N 29°51' E 122°12'1212.3
2016-Apr-30 20:33N 29°57' E 121°60'3 0.3
2016-Apr-30 09:33N 29°57' E 121°56'1110.7
2016-Apr-30 08:32N 29°56' E 122°09'1212.3
2016-Apr-30 07:33N 29°46' E 122°17'1010.6
2016-Apr-30 06:33N 29°44' E 122°29'1 0.1
2016-Apr-29 06:13N 29°45' E 122°30'3 5.3
2016-Apr-29 05:33N 29°46' E 122°34'1413.6
2016-Apr-29 04:32N 29°52' E 122°49'1513.4
2016-Apr-29 03:26N 29°58' E 123°04'1212.5
2016-Apr-29 02:28N 30°07' E 123°13'1313.5
2016-Apr-29 01:31N 30°20' E 123°13'3213.5
2016-Apr-28 23:07N 30°53' E 123°14'813.2
2016-Apr-28 22:31N 31°01' E 123°14'1212.7
2016-Apr-28 21:33N 31°13' E 123°15'2612.4
2016-Apr-28 19:28N 31°39' E 123°14'35513.7
2016-Apr-27 17:33N 37°34' E 123°14'1313.5
2016-Apr-27 16:33N 37°44' E 123°03'1313.2
2016-Apr-27 15:34N 37°53' E 122°51'1312.7
2016-Apr-27 14:33N 38°02' E 122°39'4513.0
2016-Apr-27 11:07N 38°33' E 121°59'712.0
2016-Apr-27 10:30N 38°40' E 121°57'12 0.8
2016-Apr-26 20:18N 38°52' E 121°59'0 0.0
2016-Apr-26 19:30N 38°52' E 121°59'0 0.0
2016-Apr-26 18:33N 38°52' E 121°59'0 0.0
2016-Apr-26 17:30N 38°52' E 121°59'0 0.0
2016-Apr-26 16:33N 38°52' E 121°59'0 0.1
2016-Apr-26 14:18N 38°52' E 121°59'2 0.3
2016-Apr-26 09:31N 38°52' E 121°57'6 6.0
2016-Apr-26 08:29N 38°48' E 121°50'3 2.8
2016-Apr-26 07:33N 38°45' E 121°50'1212.2
2016-Apr-26 06:33N 38°35' E 121°41'1111.3
2016-Apr-26 05:33N 38°31' E 121°28'1211.6
2016-Apr-26 04:33N 38°28' E 121°13'1111.0
2016-Apr-26 03:33N 38°30' E 120°60'1110.8
2016-Apr-26 02:31N 38°38' E 120°50'1111.9
2016-Apr-26 01:33N 38°50' E 120°48'9812.2
2016-Apr-25 17:30N 40°17' E 121°46'1212.6
2016-Apr-25 16:33N 40°18' E 122°02'3 2.2
2016-Apr-25 15:08N 40°16' E 122°06'0 0.0
2016-Apr-25 10:20N 40°16' E 122°06'0 0.0
2016-Apr-25 09:14N 40°16' E 122°06'0 0.0
2016-Apr-25 07:26N 40°16' E 122°06'0 0.0
2016-Apr-25 06:32N 40°16' E 122°06'0 0.0
2016-Apr-25 00:32N 40°16' E 122°06'0 0.0
2016-Apr-24 23:14N 40°16' E 122°06'0 0.0
2016-Apr-24 22:32N 40°16' E 122°06'0 0.0
2016-Apr-24 21:20N 40°16' E 122°06'0 0.0
2016-Apr-24 19:25N 40°16' E 122°06'0 0.0
2016-Apr-24 18:26N 40°16' E 122°06'0 0.0
2016-Apr-24 13:26N 40°16' E 122°06'2 2.4
2016-Apr-24 12:28N 40°18' E 122°03'9 9.1
2016-Apr-24 11:28N 40°18' E 121°51'11010.1
2016-Apr-24 00:31N 38°35' E 121°01'1313.1
2016-Apr-23 23:33N 38°28' E 121°14'1413.3
2016-Apr-23 22:31N 38°21' E 121°29'4113.6
2016-Apr-23 19:32N 37°60' E 122°13'1313.0
2016-Apr-23 18:32N 37°54' E 122°28'1212.5
2016-Apr-23 17:33N 37°48' E 122°41'1212.2
2016-Apr-23 16:33N 37°41' E 122°54'1312.4
2016-Apr-23 15:30N 37°35' E 123°09'1111.5
2016-Apr-23 14:32N 37°25' E 123°14'1713.0
2016-Apr-23 13:12N 37°07' E 123°15'913.9
2016-Apr-23 12:32N 36°58' E 123°14'28313.9
2016-Apr-22 16:10N 32°16' E 123°14'1115.2
2016-Apr-22 15:25N 32°04' E 123°14'1915.0
2016-Apr-22 14:09N 31°45' E 123°14'914.4
2016-Apr-22 13:33N 31°37' E 123°14'1414.1
2016-Apr-22 12:33N 31°23' E 123°13'1413.8
2016-Apr-22 11:33N 31°09' E 123°14'1613.6
2016-Apr-22 10:25N 30°53' E 123°14'1412.8
2016-Apr-22 09:20N 30°40' E 123°14'  

Dump ship's entire track history